createdAt,value
2022-09-23T00:02:02.585Z,5.08
2022-09-23T00:04:31.131Z,3.42
2022-09-23T00:06:59.658Z,3.02
2022-09-23T00:09:28.232Z,4.75
2022-09-23T00:11:56.810Z,4.37
2022-09-23T00:14:25.779Z,4.65
2022-09-23T00:16:54.404Z,3.37
2022-09-23T00:19:23.025Z,4.08
2022-09-23T00:21:51.760Z,3.95
2022-09-23T00:24:20.378Z,3.70
2022-09-23T00:26:49.022Z,5.97
2022-09-23T00:29:18.054Z,4.60
2022-09-23T00:31:46.637Z,3.47
2022-09-23T00:34:15.214Z,2.70
2022-09-23T00:36:44.354Z,4.00
2022-09-23T00:39:12.900Z,5.17
2022-09-23T00:41:43.335Z,4.08
2022-09-23T00:44:44.311Z,6.05
2022-09-23T00:47:27.937Z,3.77
2022-09-23T00:50:05.118Z,3.72
2022-09-23T00:52:34.284Z,3.65
2022-09-23T00:55:05.944Z,4.33
2022-09-23T00:57:36.988Z,5.92
2022-09-23T01:00:07.668Z,3.47
2022-09-23T01:02:37.775Z,5.58
2022-09-23T01:05:08.541Z,4.83
2022-09-23T01:07:37.077Z,5.35
2022-09-23T01:10:07.136Z,6.33
2022-09-23T01:13:14.853Z,3.20
2022-09-23T01:21:19.060Z,3.72
2022-09-23T01:24:10.215Z,4.20
2022-09-23T01:26:57.675Z,5.80
2022-09-23T01:30:03.838Z,4.53
2022-09-23T01:32:42.360Z,4.70
2022-09-23T01:35:32.062Z,3.80
2022-09-23T01:38:31.796Z,2.98
2022-09-23T01:41:08.713Z,5.28
2022-09-23T01:43:47.548Z,6.20
2022-09-23T01:46:19.233Z,3.27
2022-09-23T01:48:56.636Z,4.12
2022-09-23T01:51:32.354Z,4.83
2022-09-23T01:54:27.903Z,5.22
2022-09-23T01:57:05.008Z,3.67
2022-09-23T01:59:44.614Z,3.35
2022-09-23T02:02:25.580Z,3.42
2022-09-23T02:05:12.036Z,3.20
2022-09-23T02:08:03.429Z,4.47
2022-09-23T02:10:42.109Z,3.92
2022-09-23T02:13:26.701Z,4.72
2022-09-23T02:16:02.194Z,4.42
2022-09-23T02:18:42.000Z,3.17
2022-09-23T02:21:21.867Z,3.25
2022-09-23T02:24:00.174Z,4.55
2022-09-23T02:26:38.792Z,4.03
2022-09-23T02:29:31.384Z,4.05
2022-09-23T02:32:22.699Z,4.72
2022-09-23T02:35:12.199Z,4.42
2022-09-23T02:37:52.853Z,4.08
2022-09-23T02:43:19.919Z,4.78
2022-09-23T02:45:53.261Z,4.12
2022-09-23T02:48:29.261Z,3.75
2022-09-23T02:51:01.166Z,5.12
2022-09-23T02:53:36.610Z,4.23
2022-09-23T02:56:26.550Z,4.45
2022-09-23T02:58:55.532Z,3.67
2022-09-23T03:02:00.451Z,3.52
2022-09-23T03:04:38.341Z,5.47
2022-09-23T03:07:18.656Z,3.25
2022-09-23T03:10:23.287Z,3.92
2022-09-23T03:13:13.081Z,4.47
2022-09-23T03:16:06.126Z,4.67
2022-09-23T03:18:43.415Z,5.85
2022-09-23T03:21:17.944Z,3.75
2022-09-23T03:23:53.312Z,4.25
2022-09-23T03:26:25.003Z,4.78
2022-09-23T03:28:54.161Z,4.10
2022-09-23T03:31:22.948Z,4.55
2022-09-23T03:33:57.564Z,4.53
2022-09-23T03:36:49.612Z,3.62
2022-09-23T03:39:30.098Z,4.75
2022-09-23T03:42:01.697Z,3.10
2022-09-23T03:44:31.083Z,3.75
2022-09-23T03:47:03.795Z,3.42
2022-09-23T03:52:02.356Z,6.90
2022-09-23T03:54:31.294Z,5.60
2022-09-23T03:57:03.028Z,4.03
2022-09-23T03:59:31.707Z,5.72
2022-09-23T04:02:01.808Z,5.40
2022-09-23T04:04:32.466Z,3.20
2022-09-23T04:07:01.482Z,4.17
2022-09-23T04:09:30.432Z,4.28
2022-09-23T04:11:59.047Z,3.40
2022-09-23T04:14:27.784Z,6.50
2022-09-23T04:16:56.745Z,3.47
2022-09-23T04:19:25.349Z,5.15
2022-09-23T04:21:53.902Z,7.17
2022-09-23T04:24:22.490Z,4.03
2022-09-23T04:26:56.057Z,4.65
2022-09-23T04:29:26.390Z,5.95
2022-09-23T04:31:56.259Z,6.00
2022-09-23T04:34:25.637Z,3.75
2022-09-23T04:36:54.920Z,3.50
2022-09-23T04:39:24.190Z,2.87
2022-09-23T04:41:53.394Z,3.87
2022-09-23T04:44:22.770Z,3.30
2022-09-23T04:46:51.907Z,4.92
2022-09-23T04:49:20.893Z,4.28
2022-09-23T04:51:50.274Z,4.92
2022-09-23T04:54:19.557Z,3.52
2022-09-23T04:56:48.775Z,2.72
2022-09-23T04:59:29.871Z,3.15
2022-09-23T05:02:08.548Z,3.75
2022-09-23T05:05:08.060Z,3.62
2022-09-23T05:10:47.468Z,3.47
2022-09-23T05:13:20.211Z,4.05
2022-09-23T05:25:09.830Z,5.87
2022-09-23T05:27:55.732Z,4.22
2022-09-23T05:36:52.036Z,5.12
2022-09-23T05:39:34.339Z,5.30
2022-09-23T05:45:16.235Z,9.70
2022-09-23T05:48:35.524Z,5.35
2022-09-23T05:51:11.739Z,7.12
2022-09-23T05:57:29.896Z,3.87
2022-09-23T06:39:22.409Z,4.78
2022-09-23T06:41:49.739Z,3.02
2022-09-23T06:44:27.251Z,3.85
2022-09-23T06:46:53.143Z,6.05
2022-09-23T06:49:22.716Z,3.55
2022-09-23T06:51:51.312Z,3.70
2022-09-23T06:54:20.486Z,3.33
2022-09-23T06:56:49.138Z,3.87
2022-09-23T06:59:18.479Z,5.60
2022-09-23T07:01:48.596Z,5.15
2022-09-23T07:04:17.579Z,3.67
2022-09-23T07:06:46.166Z,4.58
2022-09-23T07:09:14.733Z,4.60
2022-09-23T07:11:43.275Z,3.37
2022-09-23T07:14:11.886Z,3.10
2022-09-23T07:16:41.867Z,7.47
2022-09-23T07:19:12.293Z,3.95
2022-09-23T07:21:41.236Z,3.25
2022-09-23T07:24:09.932Z,4.45
2022-09-23T07:26:43.475Z,3.92
2022-09-23T07:29:10.818Z,5.28
2022-09-23T07:31:40.191Z,5.75
2022-09-23T07:34:11.788Z,5.83
2022-09-23T07:36:41.351Z,5.00
2022-09-23T07:39:12.393Z,4.58
2022-09-23T07:41:42.974Z,3.02
2022-09-23T07:44:12.688Z,4.37
2022-09-23T07:46:41.407Z,5.37
2022-09-23T07:49:10.660Z,4.30
2022-09-23T07:51:41.417Z,4.10
2022-09-23T07:54:13.162Z,6.30
2022-09-23T07:56:42.578Z,3.90
2022-09-23T07:59:18.103Z,4.72
2022-09-23T08:01:50.179Z,6.47
2022-09-23T08:04:25.487Z,3.83
2022-09-23T08:06:57.553Z,6.53
2022-09-23T08:09:29.339Z,4.67
2022-09-23T08:11:57.961Z,3.35
2022-09-23T08:14:27.025Z,3.17
2022-09-23T08:16:55.943Z,4.10
2022-09-23T08:19:24.602Z,3.00
2022-09-23T08:21:54.871Z,5.55
2022-09-23T08:24:24.658Z,3.60
2022-09-23T08:26:54.372Z,4.25
2022-09-23T08:29:25.500Z,3.25
2022-09-23T08:31:54.663Z,5.35
2022-09-23T08:34:35.580Z,6.00
2022-09-23T08:37:04.339Z,5.97
2022-09-23T08:39:32.935Z,4.45
2022-09-23T08:42:07.686Z,4.58
2022-09-23T08:44:41.989Z,6.37
2022-09-23T08:47:37.385Z,4.33
2022-09-23T08:50:18.118Z,5.65
2022-09-23T08:52:59.055Z,4.72
2022-09-23T08:55:42.849Z,3.52
2022-09-23T08:58:31.115Z,5.05
2022-09-23T09:01:25.346Z,3.83
2022-09-23T09:03:59.643Z,3.87
2022-09-23T09:06:53.048Z,6.03
2022-09-23T09:09:31.015Z,3.52
2022-09-23T09:12:20.829Z,4.22
2022-09-23T09:15:05.001Z,7.47
2022-09-23T09:17:36.590Z,6.28
2022-09-23T09:20:20.273Z,4.05
2022-09-23T09:22:58.875Z,3.87
2022-09-23T09:25:49.476Z,6.92
2022-09-23T09:28:31.230Z,5.20
2022-09-23T09:31:05.456Z,7.37
2022-09-23T09:33:44.059Z,4.80
2022-09-23T09:36:21.272Z,3.90
2022-09-23T09:38:51.532Z,3.90
2022-09-23T09:41:22.164Z,5.20
2022-09-23T09:43:59.308Z,3.47
2022-09-23T09:46:47.640Z,3.85
2022-09-23T09:49:20.886Z,4.15
2022-09-23T09:51:50.478Z,5.35
2022-09-23T09:54:26.747Z,5.78
2022-09-23T09:56:56.065Z,3.95
2022-09-23T09:59:29.370Z,3.80
2022-09-23T10:02:15.666Z,4.35
2022-09-23T10:04:44.646Z,3.02
2022-09-23T10:07:17.064Z,6.85
2022-09-23T10:09:53.900Z,6.10
2022-09-23T10:12:25.765Z,4.50
2022-09-23T10:14:58.516Z,3.47
2022-09-23T10:17:33.130Z,4.05
2022-09-23T10:20:04.947Z,5.62
2022-09-23T10:22:37.319Z,3.72
2022-09-23T10:25:11.952Z,5.05
2022-09-23T10:27:40.488Z,4.83
2022-09-23T10:30:17.985Z,4.50
2022-09-23T10:32:46.687Z,4.58
2022-09-23T10:35:18.458Z,2.98
2022-09-23T10:38:02.241Z,2.85
2022-09-23T10:40:59.755Z,2.42
2022-09-23T10:44:06.377Z,2.22
2022-09-23T10:52:22.159Z,4.55
2022-09-23T10:55:08.780Z,3.70
2022-09-23T11:25:10.172Z,5.10
2022-09-23T11:28:07.490Z,2.92
2022-09-23T11:30:39.123Z,4.47
2022-09-23T11:33:42.456Z,5.12
2022-09-23T11:36:14.722Z,4.75
2022-09-23T11:38:46.353Z,3.40
2022-09-23T11:41:20.540Z,4.62
2022-09-23T11:43:55.247Z,4.30
2022-09-23T11:46:35.842Z,4.08
2022-09-23T11:49:19.408Z,3.57
2022-09-23T11:52:10.601Z,4.42
2022-09-23T11:54:45.104Z,3.25
2022-09-23T11:57:16.779Z,3.90
2022-09-23T12:02:31.104Z,3.62
2022-09-23T12:05:05.307Z,4.30
2022-09-23T12:07:53.122Z,3.30
2022-09-23T12:10:23.535Z,3.52
2022-09-23T12:13:00.952Z,3.98
2022-09-23T12:15:35.449Z,4.35
2022-09-23T12:18:07.101Z,2.40
2022-09-23T12:20:48.353Z,3.27
2022-09-23T12:23:19.979Z,2.80
2022-09-23T12:25:54.337Z,2.95
2022-09-23T12:28:31.685Z,3.55
2022-09-23T12:31:03.038Z,2.87
2022-09-23T12:33:34.115Z,4.33
2022-09-23T12:36:12.128Z,5.37
2022-09-23T12:38:56.007Z,3.65
2022-09-23T12:41:42.613Z,4.35
2022-09-23T12:44:28.801Z,4.17
2022-09-23T12:47:27.969Z,4.60
2022-09-23T12:49:58.063Z,3.73
2022-09-23T12:52:31.180Z,3.05
2022-09-23T12:55:21.983Z,4.65
2022-09-23T12:57:50.546Z,4.47
2022-09-23T13:00:29.854Z,5.47
2022-09-23T13:03:17.860Z,4.33
2022-09-23T13:06:12.821Z,3.65
2022-09-23T13:08:43.416Z,4.92
2022-09-23T13:11:20.924Z,3.37
2022-09-23T13:13:51.455Z,5.12
2022-09-23T13:16:26.080Z,3.63
2022-09-23T13:18:57.223Z,3.80
2022-09-23T13:21:46.957Z,3.52
2022-09-23T13:24:20.891Z,2.72
2022-09-23T13:27:01.683Z,3.58
2022-09-23T13:29:39.556Z,4.47
2022-09-23T13:32:19.976Z,5.00
2022-09-23T13:34:58.032Z,5.70
2022-09-23T13:37:35.472Z,4.95
2022-09-23T13:40:24.106Z,7.03
2022-09-23T13:42:58.884Z,4.65
2022-09-23T13:45:28.949Z,3.52
2022-09-23T13:48:03.690Z,2.92
2022-09-23T13:50:34.991Z,4.55
2022-09-23T13:53:05.545Z,3.30
2022-09-23T13:55:38.478Z,3.12
2022-09-23T13:58:17.350Z,1.50
2022-09-23T14:00:46.809Z,2.20
2022-09-23T14:03:36.879Z,4.53
2022-09-23T14:06:16.934Z,4.10
2022-09-23T14:08:50.313Z,2.92
2022-09-23T14:11:23.309Z,2.55
2022-09-23T14:13:54.555Z,1.98
2022-09-23T14:16:26.803Z,2.80
2022-09-23T14:19:00.834Z,1.50
2022-09-23T14:21:40.289Z,2.08
2022-09-23T14:24:20.346Z,2.75
2022-09-23T14:26:54.753Z,3.40
2022-09-23T14:29:26.350Z,1.70
2022-09-23T14:31:58.000Z,2.50
2022-09-23T14:34:53.575Z,2.12
2022-09-23T14:37:46.289Z,2.40
2022-09-23T14:40:24.824Z,2.08
2022-09-23T14:42:59.141Z,1.82
2022-09-23T14:45:30.810Z,2.52
2022-09-23T14:48:02.714Z,3.33
2022-09-23T14:50:43.560Z,1.90
2022-09-23T14:53:45.677Z,3.17
2022-09-23T14:56:20.306Z,3.42
2022-09-23T14:59:01.577Z,1.72
2022-09-23T15:01:39.082Z,3.65
2022-09-23T15:04:17.342Z,3.72
2022-09-23T15:06:51.950Z,1.73
2022-09-23T15:09:26.284Z,4.20
2022-09-23T15:12:03.378Z,2.85
2022-09-23T15:14:39.573Z,2.60
2022-09-23T15:17:14.297Z,2.30
2022-09-23T15:19:42.972Z,2.17
2022-09-23T15:22:12.869Z,3.20
2022-09-23T15:24:46.179Z,1.92
2022-09-23T15:27:35.188Z,3.22
2022-09-23T15:30:15.123Z,2.12
2022-09-23T15:32:47.918Z,2.30
2022-09-23T15:35:21.944Z,1.65
2022-09-23T15:37:51.584Z,3.05
2022-09-23T15:40:41.304Z,2.70
2022-09-23T15:43:21.998Z,3.07
2022-09-23T15:45:53.446Z,4.03
2022-09-23T15:48:32.566Z,3.60
2022-09-23T15:51:04.157Z,3.17
2022-09-23T15:53:34.524Z,3.77
2022-09-23T15:56:03.143Z,3.22
2022-09-23T15:58:31.869Z,4.28
2022-09-23T16:01:01.183Z,2.15
2022-09-23T16:03:29.841Z,3.17
2022-09-23T16:06:02.240Z,3.72
2022-09-23T16:08:33.020Z,1.57
2022-09-23T16:11:02.061Z,5.90
2022-09-23T16:13:30.598Z,4.92
2022-09-23T16:16:00.410Z,6.33
2022-09-23T16:18:29.018Z,1.45
2022-09-23T16:20:59.050Z,2.20
2022-09-23T16:23:38.154Z,3.15
2022-09-23T16:26:21.360Z,3.52
2022-09-23T16:28:51.951Z,1.82
2022-09-23T16:31:21.940Z,3.45
2022-09-23T16:33:51.317Z,2.67
2022-09-23T16:36:34.345Z,4.65
2022-09-23T16:41:32.573Z,3.77
2022-09-23T16:44:04.336Z,5.85
2022-09-23T16:46:33.172Z,6.10
2022-09-23T16:49:01.729Z,7.65
2022-09-23T16:51:34.552Z,6.45
2022-09-23T16:56:32.039Z,6.42
2022-09-23T16:59:00.807Z,4.15
2022-09-23T17:01:48.090Z,3.77
2022-09-23T17:04:19.547Z,4.37
2022-09-23T17:06:50.914Z,4.28
2022-09-23T17:09:25.566Z,1.90
2022-09-23T17:12:05.988Z,3.22
2022-09-23T17:14:34.598Z,1.60
2022-09-23T17:17:03.164Z,3.12
2022-09-23T17:19:33.449Z,2.90
2022-09-23T17:22:02.081Z,2.52
2022-09-23T17:24:30.633Z,4.03
2022-09-23T17:26:59.183Z,4.12
2022-09-23T17:29:29.033Z,3.60
2022-09-23T17:31:57.969Z,2.65
2022-09-23T17:34:28.130Z,2.35
2022-09-23T17:36:56.663Z,2.87
2022-09-23T17:39:25.216Z,2.70
2022-09-23T17:41:55.412Z,3.30
2022-09-23T17:44:24.134Z,2.85
2022-09-23T17:46:52.834Z,3.55
2022-09-23T17:49:23.280Z,4.37
2022-09-23T17:51:51.924Z,3.92
2022-09-23T17:54:20.468Z,5.22
2022-09-23T17:56:49.011Z,4.45
2022-09-23T17:59:17.654Z,3.70
2022-09-23T18:01:46.283Z,3.98
2022-09-23T18:04:14.840Z,2.47
2022-09-23T18:06:43.359Z,3.42
2022-09-23T18:09:12.077Z,2.83
2022-09-23T18:11:43.180Z,3.77
2022-09-23T18:14:20.818Z,5.37
2022-09-23T18:16:51.538Z,4.17
2022-09-23T18:19:22.723Z,4.33
2022-09-23T18:22:00.906Z,6.75
2022-09-23T18:24:33.365Z,2.98
2022-09-23T18:26:59.890Z,8.60
2022-09-23T18:29:28.874Z,4.08
2022-09-23T18:31:58.811Z,5.08
2022-09-23T18:34:27.539Z,7.05
2022-09-23T18:36:56.162Z,4.28
2022-09-23T18:39:24.862Z,5.25
2022-09-23T18:41:54.614Z,4.45
2022-09-23T18:44:23.474Z,6.15
2022-09-23T18:46:52.046Z,4.90
2022-09-23T18:49:38.292Z,5.87
2022-09-23T18:52:06.873Z,10.23
2022-09-23T18:54:35.437Z,6.22
2022-09-23T18:57:04.055Z,7.20
2022-09-23T18:59:33.405Z,7.42
2022-09-23T19:02:02.343Z,5.28
2022-09-23T19:04:31.002Z,6.03
2022-09-23T19:07:02.783Z,6.28
2022-09-23T19:09:31.402Z,7.35
2022-09-23T19:12:00.945Z,7.80
2022-09-23T19:14:29.516Z,9.65
2022-09-23T19:16:58.885Z,10.23
2022-09-23T19:19:28.805Z,15.25
2022-09-23T19:21:57.373Z,13.43
2022-09-23T19:24:26.031Z,14.93
2022-09-23T19:26:56.388Z,11.90
2022-09-23T19:29:25.488Z,7.87
2022-09-23T19:31:54.093Z,7.42
2022-09-23T19:34:25.935Z,5.60
2022-09-23T19:36:57.347Z,7.15
2022-09-23T19:39:29.895Z,8.33
2022-09-23T19:41:59.003Z,7.67
2022-09-23T19:44:28.078Z,5.50
2022-09-23T19:46:57.446Z,6.67
2022-09-23T19:49:26.823Z,6.75
2022-09-23T19:51:56.462Z,10.00
2022-09-23T19:54:27.204Z,8.75
2022-09-23T19:56:57.264Z,7.60
2022-09-23T19:59:26.385Z,7.03
2022-09-23T20:01:55.382Z,8.03
2022-09-23T20:04:24.150Z,6.10
2022-09-23T20:06:52.853Z,7.60
2022-09-23T20:09:21.471Z,10.23
2022-09-23T20:11:50.573Z,6.37
2022-09-23T20:14:19.822Z,4.95
2022-09-23T20:16:48.366Z,6.45
2022-09-23T20:19:16.954Z,5.22
2022-09-23T20:21:47.217Z,6.17
2022-09-23T20:24:15.836Z,5.65
2022-09-23T20:27:02.313Z,9.75
2022-09-23T20:29:30.915Z,9.55
2022-09-23T20:31:59.509Z,8.33
2022-09-23T20:34:29.740Z,14.60
2022-09-23T20:36:59.297Z,16.25
2022-09-23T20:39:28.193Z,10.20
2022-09-23T20:41:56.871Z,7.72
2022-09-23T20:44:25.504Z,10.35
2022-09-23T20:46:54.150Z,8.90
2022-09-23T20:49:22.673Z,7.20
2022-09-23T20:51:51.754Z,6.92
2022-09-23T20:54:20.427Z,7.35
2022-09-23T20:56:49.184Z,8.68
2022-09-23T20:59:18.197Z,10.32
2022-09-23T21:01:47.549Z,7.80
2022-09-23T21:04:17.271Z,8.13
2022-09-23T21:06:45.873Z,7.87
2022-09-23T21:09:14.459Z,17.98
2022-09-23T21:11:43.037Z,17.05
2022-09-23T21:14:11.675Z,19.23
2022-09-23T21:16:40.318Z,11.55
2022-09-23T21:19:09.025Z,13.98
2022-09-23T21:21:37.717Z,12.75
2022-09-23T21:24:36.059Z,14.60
2022-09-23T21:26:37.257Z,11.97
2022-09-23T21:29:06.790Z,18.25
2022-09-23T21:31:38.860Z,15.13
2022-09-23T21:34:11.170Z,17.60
2022-09-23T21:36:43.146Z,11.85
2022-09-23T21:39:12.714Z,11.18
2022-09-23T21:41:42.407Z,13.95
2022-09-23T21:44:11.931Z,10.38
2022-09-23T21:46:40.665Z,11.75
2022-09-23T21:49:09.380Z,11.40
2022-09-23T21:51:41.930Z,9.98
2022-09-23T21:54:16.761Z,9.73
2022-09-23T21:56:45.669Z,12.40
2022-09-23T21:59:14.242Z,9.75
2022-09-23T22:01:50.484Z,11.05
2022-09-23T22:04:19.423Z,10.28
2022-09-23T22:06:49.044Z,11.60
2022-09-23T22:09:20.671Z,10.98
2022-09-23T22:12:06.951Z,14.47
2022-09-23T22:14:35.666Z,9.35
2022-09-23T22:17:06.684Z,11.45
2022-09-23T22:19:40.265Z,7.67
2022-09-23T22:22:13.431Z,8.75
2022-09-23T22:24:47.251Z,7.85
2022-09-23T22:27:18.568Z,11.38
2022-09-23T22:30:04.926Z,11.10
2022-09-23T22:32:43.268Z,10.32
2022-09-23T22:35:15.938Z,7.30
2022-09-23T22:37:45.035Z,8.25
2022-09-23T22:40:15.660Z,7.22
2022-09-23T22:42:45.173Z,7.58
2022-09-23T22:45:13.912Z,7.70
2022-09-23T22:47:45.749Z,8.75
2022-09-23T22:50:15.537Z,6.67
2022-09-23T22:52:44.230Z,9.30
2022-09-23T22:55:13.737Z,7.72
2022-09-23T22:57:42.484Z,7.62
2022-09-23T23:00:12.558Z,6.12
2022-09-23T23:02:42.556Z,5.85
2022-09-23T23:05:11.556Z,7.65
2022-09-23T23:07:41.098Z,6.10
2022-09-23T23:10:10.463Z,5.97
2022-09-23T23:12:39.447Z,8.25
2022-09-23T23:15:10.494Z,7.30
2022-09-23T23:17:41.203Z,13.78
2022-09-23T23:20:10.039Z,7.28
2022-09-23T23:22:38.609Z,6.35
2022-09-23T23:25:07.651Z,7.12
2022-09-23T23:27:36.246Z,5.75
2022-09-23T23:30:10.960Z,7.22
2022-09-23T23:32:39.719Z,6.60
2022-09-23T23:35:08.949Z,8.58
2022-09-23T23:37:37.494Z,6.67
2022-09-23T23:40:07.002Z,8.25
2022-09-23T23:42:35.668Z,7.67
2022-09-23T23:45:04.409Z,10.03
2022-09-23T23:47:32.965Z,8.43
2022-09-23T23:50:03.140Z,12.18
2022-09-23T23:52:31.786Z,8.15
2022-09-23T23:55:00.325Z,8.78
2022-09-23T23:57:29.495Z,8.40
2022-09-23T23:59:58.605Z,9.03
